createdAt,value
2019-04-11T00:01:32.539Z,96644.96
2019-04-11T00:03:54.102Z,96655.28
2019-04-11T00:06:25.998Z,96656.00
2019-04-11T00:08:58.501Z,96654.21
2019-04-11T00:11:30.234Z,96651.23
2019-04-11T00:14:01.682Z,96651.64
2019-04-11T00:16:33.500Z,96650.27
2019-04-11T00:19:05.225Z,96649.43
2019-04-11T00:21:37.828Z,96650.98
2019-04-11T00:24:10.411Z,96640.83
2019-04-11T00:26:42.295Z,96648.16
2019-04-11T00:29:14.381Z,96645.53
2019-04-11T00:31:46.973Z,96648.97
2019-04-11T00:34:20.594Z,96651.91
2019-04-11T00:36:52.715Z,96656.72
2019-04-11T00:39:24.199Z,96661.66
2019-04-11T00:41:56.511Z,96657.70
2019-04-11T00:44:28.024Z,96659.84
2019-04-11T00:47:00.548Z,96667.84
2019-04-11T00:49:32.602Z,96660.48
2019-04-11T00:52:04.574Z,96669.41
2019-04-11T00:54:36.187Z,96657.23
2019-04-11T00:57:08.485Z,96661.70
2019-04-11T00:59:40.607Z,96662.47
2019-04-11T01:02:13.479Z,96669.64
2019-04-11T01:04:45.343Z,96672.55
2019-04-11T01:07:16.766Z,96676.81
2019-04-11T01:09:48.865Z,96671.27
2019-04-11T01:12:20.722Z,96672.84
2019-04-11T01:14:53.164Z,96679.32
2019-04-11T01:17:25.371Z,96679.67
2019-04-11T01:19:57.377Z,96680.30
2019-04-11T01:22:29.862Z,96685.72
2019-04-11T01:25:01.274Z,96687.34
2019-04-11T01:27:34.088Z,96685.36
2019-04-11T01:30:09.179Z,96696.62
2019-04-11T01:32:40.798Z,96691.17
2019-04-11T01:35:13.090Z,96692.52
2019-04-11T01:37:46.046Z,96694.81
2019-04-11T01:40:17.952Z,96695.67
2019-04-11T01:42:49.384Z,96697.50
2019-04-11T01:45:22.726Z,96691.70
2019-04-11T01:48:03.653Z,96701.72
2019-04-11T01:50:37.052Z,96707.33
2019-04-11T01:53:10.916Z,96703.17
2019-04-11T01:55:42.929Z,96704.45
2019-04-11T01:58:14.562Z,96710.91
2019-04-11T02:01:11.137Z,96711.65
2019-04-11T02:03:50.062Z,96705.98
2019-04-11T02:06:23.565Z,96715.47
2019-04-11T02:08:55.695Z,96708.41
2019-04-11T02:11:27.727Z,96723.19
2019-04-11T02:14:09.871Z,96719.49
2019-04-11T02:16:32.770Z,96724.02
2019-04-11T02:19:05.473Z,96720.66
2019-04-11T02:21:37.868Z,96724.35
2019-04-11T02:24:17.968Z,96723.61
2019-04-11T02:27:01.062Z,96726.38
2019-04-11T02:29:33.270Z,96730.23
2019-04-11T02:32:05.586Z,96729.51
2019-04-11T02:34:39.572Z,96732.27
2019-04-11T02:37:10.976Z,96731.95
2019-04-11T02:39:43.251Z,96733.23
2019-04-11T02:42:14.989Z,96733.09
2019-04-11T02:45:06.302Z,96734.06
2019-04-11T02:47:24.209Z,96738.38
2019-04-11T02:49:54.959Z,96741.92
2019-04-11T02:52:27.762Z,96741.23
2019-04-11T02:55:00.775Z,96749.15
2019-04-11T02:57:34.169Z,96748.36
2019-04-11T03:00:08.386Z,96746.62
2019-04-11T03:02:41.643Z,96749.97
2019-04-11T03:05:13.812Z,96752.69
2019-04-11T03:07:45.887Z,96749.82
2019-04-11T03:10:18.730Z,96757.03
2019-04-11T03:12:52.532Z,96759.17
2019-04-11T03:15:42.069Z,96755.36
2019-04-11T03:18:02.208Z,96756.72
2019-04-11T03:20:36.855Z,96767.22
2019-04-11T03:23:06.226Z,96765.61
2019-04-11T03:25:38.558Z,96759.67
2019-04-11T03:28:14.898Z,96762.57
2019-04-11T03:31:03.903Z,96762.50
2019-04-11T03:36:53.280Z,96763.35
2019-04-11T03:38:46.591Z,96760.00
2019-04-11T03:41:17.375Z,96762.50
2019-04-11T03:43:41.873Z,96760.41
2019-04-11T03:46:26.087Z,96763.84
2019-04-11T03:48:53.386Z,96767.75
2019-04-11T03:51:16.744Z,96771.61
2019-04-11T03:53:49.105Z,96769.86
2019-04-11T03:56:22.020Z,96769.04
2019-04-11T03:58:55.206Z,96781.71
2019-04-11T04:01:27.506Z,96774.98
2019-04-11T04:04:00.603Z,96771.52
2019-04-11T04:06:33.050Z,96776.00
2019-04-11T04:09:08.929Z,96771.98
2019-04-11T04:11:44.853Z,96772.95
2019-04-11T04:14:34.535Z,96771.64
2019-04-11T04:17:25.431Z,96778.97
2019-04-11T04:20:29.032Z,96779.52
2019-04-11T04:23:20.826Z,96781.55
2019-04-11T04:25:54.315Z,96788.03
2019-04-11T04:28:27.266Z,96791.45
2019-04-11T04:31:00.258Z,96798.70
2019-04-11T04:33:35.097Z,96796.84
2019-04-11T04:36:10.382Z,96798.52
2019-04-11T04:38:41.431Z,96799.72
2019-04-11T04:41:27.924Z,96803.86
2019-04-11T04:43:50.472Z,96810.22
2019-04-11T04:46:35.082Z,96804.91
2019-04-11T04:48:55.997Z,96803.55
2019-04-11T04:51:28.879Z,96811.12
2019-04-11T04:54:00.613Z,96812.98
2019-04-11T04:56:34.773Z,96815.59
2019-04-11T04:59:07.119Z,96816.40
2019-04-11T05:01:39.372Z,96817.13
2019-04-11T05:04:13.508Z,96826.80
2019-04-11T05:06:48.227Z,96827.55
2019-04-11T05:09:18.008Z,96834.25
2019-04-11T05:11:50.787Z,96831.66
2019-04-11T05:14:23.330Z,96830.19
2019-04-11T05:16:55.414Z,96837.20
2019-04-11T05:19:28.532Z,96833.69
2019-04-11T05:22:00.052Z,96839.00
2019-04-11T05:24:31.557Z,96836.98
2019-04-11T05:27:04.157Z,96833.53
2019-04-11T05:29:37.543Z,96835.91
2019-04-11T05:32:09.427Z,96830.10
2019-04-11T05:34:41.419Z,96831.69
2019-04-11T05:37:13.258Z,96838.55
2019-04-11T05:39:45.010Z,96831.50
2019-04-11T05:42:19.386Z,96837.39
2019-04-11T05:44:49.980Z,96836.42
2019-04-11T05:47:21.760Z,96836.50
2019-04-11T05:50:30.385Z,96830.13
2019-04-11T05:53:03.886Z,96832.08
2019-04-11T05:55:43.131Z,96837.29
2019-04-11T05:58:14.354Z,96836.44
2019-04-11T06:00:53.274Z,96841.55
2019-04-11T06:03:26.063Z,96839.72
2019-04-11T06:06:36.413Z,96841.77
2019-04-11T06:09:11.769Z,96835.88
2019-04-11T06:12:01.104Z,96838.49
2019-04-11T06:14:47.202Z,96843.48
2019-04-11T06:17:20.069Z,96845.17
2019-04-11T06:20:25.740Z,96848.19
2019-04-11T06:23:05.015Z,96844.84
2019-04-11T06:25:55.669Z,96861.08
2019-04-11T06:28:30.741Z,96860.64
2019-04-11T06:31:20.777Z,96854.79
2019-04-11T06:33:56.786Z,96857.36
2019-04-11T06:36:48.181Z,96860.86
2019-04-11T06:39:43.217Z,96860.19
2019-04-11T06:42:40.000Z,96864.61
2019-04-11T06:45:33.528Z,96863.30
2019-04-11T06:48:15.749Z,96858.92
2019-04-11T06:51:26.026Z,96865.38
2019-04-11T06:54:41.111Z,96864.66
2019-04-11T06:57:25.731Z,96863.69
2019-04-11T06:59:58.744Z,96869.05
2019-04-11T07:02:55.089Z,96869.88
2019-04-11T07:05:28.858Z,96875.48
2019-04-11T07:08:00.292Z,96876.34
2019-04-11T07:10:39.493Z,96868.34
2019-04-11T07:13:21.019Z,96874.80
2019-04-11T07:15:55.000Z,96877.41
2019-04-11T07:18:56.987Z,96874.53
2019-04-11T07:21:35.321Z,96880.56
2019-04-11T07:24:24.703Z,96877.27
2019-04-11T07:27:08.101Z,96881.16
2019-04-11T07:30:07.742Z,96881.15
2019-04-11T07:32:39.046Z,96879.05
2019-04-11T07:35:27.849Z,96878.78
2019-04-11T07:38:01.081Z,96885.67
2019-04-11T07:40:58.915Z,96892.88
2019-04-11T07:43:33.522Z,96885.66
2019-04-11T07:46:25.087Z,96889.94
2019-04-11T07:49:03.962Z,96895.28
2019-04-11T07:51:38.519Z,96900.09
2019-04-11T07:54:13.827Z,96895.19
2019-04-11T07:56:58.674Z,96896.69
2019-04-11T07:59:48.992Z,96904.06
2019-04-11T08:02:38.038Z,96903.81
2019-04-11T08:05:28.085Z,96906.69
2019-04-11T08:08:30.430Z,96904.52
2019-04-11T08:11:21.212Z,96907.67
2019-04-11T08:14:14.568Z,96916.44
2019-04-11T08:17:11.495Z,96911.66
2019-04-11T08:20:02.918Z,96916.77
2019-04-11T08:22:45.658Z,96916.75
2019-04-11T08:25:35.510Z,96916.91
2019-04-11T08:28:09.984Z,96930.77
2019-04-11T08:31:01.354Z,96923.27
2019-04-11T08:33:35.002Z,96919.93
2019-04-11T08:36:38.021Z,96917.81
2019-04-11T08:39:17.185Z,96921.20
2019-04-11T08:42:19.909Z,96928.42
2019-04-11T08:44:52.222Z,96932.60
2019-04-11T08:47:24.498Z,96931.50
2019-04-11T08:49:58.426Z,96927.19
2019-04-11T08:52:42.362Z,96935.41
2019-04-11T08:55:19.002Z,96934.84
2019-04-11T08:57:54.402Z,96929.81
2019-04-11T09:00:56.165Z,96934.16
2019-04-11T09:03:31.905Z,96928.86
2019-04-11T09:06:08.575Z,96935.59
2019-04-11T09:08:59.850Z,96936.73
2019-04-11T09:11:36.602Z,96932.76
2019-04-11T09:14:38.635Z,96931.76
2019-04-11T09:17:19.534Z,96941.09
2019-04-11T09:20:16.942Z,96937.91
2019-04-11T09:22:55.389Z,96928.80
2019-04-11T09:25:45.421Z,96933.59
2019-04-11T09:28:33.451Z,96927.69
2019-04-11T09:31:42.549Z,96932.33
2019-04-11T09:34:31.015Z,96935.78
2019-04-11T09:37:06.458Z,96937.89
2019-04-11T09:40:03.720Z,96943.27
2019-04-11T09:42:57.593Z,96944.61
2019-04-11T09:45:52.190Z,96941.82
2019-04-11T09:48:31.587Z,96945.11
2019-04-11T09:51:21.608Z,96934.18
2019-04-11T09:53:57.297Z,96927.28
2019-04-11T09:56:50.143Z,96929.42
2019-04-11T09:59:27.186Z,96930.72
2019-04-11T10:02:20.980Z,96934.17
2019-04-11T10:04:52.297Z,96928.53
2019-04-11T10:07:44.038Z,96932.02
2019-04-11T10:10:46.379Z,96934.10
2019-04-11T10:13:24.947Z,96934.95
2019-04-11T10:16:11.529Z,96932.18
2019-04-11T10:18:51.610Z,96932.70
2019-04-11T10:21:24.385Z,96927.63
2019-04-11T10:24:20.632Z,96930.66
2019-04-11T10:27:00.504Z,96926.25
2019-04-11T10:29:50.415Z,96946.99
2019-04-11T10:32:25.377Z,96933.72
2019-04-11T10:35:17.542Z,96929.66
2019-04-11T10:37:47.794Z,96924.59
2019-04-11T10:40:50.353Z,96935.77
2019-04-11T10:43:22.456Z,96926.67
2019-04-11T10:46:00.809Z,96919.67
2019-04-11T10:48:45.247Z,96922.55
2019-04-11T10:51:42.314Z,96924.57
2019-04-11T10:54:15.482Z,96927.59
2019-04-11T10:57:10.052Z,96927.83
2019-04-11T10:59:41.250Z,96923.92
2019-04-11T11:02:25.206Z,96926.48
2019-04-11T11:04:57.338Z,96931.21
2019-04-11T11:07:31.006Z,96925.88
2019-04-11T11:10:04.925Z,96928.17
2019-04-11T11:12:57.329Z,96929.51
2019-04-11T11:15:35.712Z,96927.49
2019-04-11T11:18:53.059Z,96929.59
2019-04-11T11:21:06.897Z,96931.44
2019-04-11T11:24:00.914Z,96931.47
2019-04-11T11:26:38.887Z,96934.20
2019-04-11T11:29:42.952Z,96934.26
2019-04-11T11:32:39.638Z,96940.28
2019-04-11T11:35:32.888Z,96934.17
2019-04-11T11:38:16.039Z,96934.29
2019-04-11T11:41:05.887Z,96939.72
2019-04-11T11:43:37.222Z,96933.70
2019-04-11T11:46:29.714Z,96940.45
2019-04-11T11:49:44.939Z,96937.63
2019-04-11T11:52:24.841Z,96936.71
2019-04-11T11:54:56.781Z,96940.85
2019-04-11T11:57:33.310Z,96929.83
2019-04-11T12:00:17.744Z,96929.72
2019-04-11T12:03:08.657Z,96934.58
2019-04-11T12:05:50.459Z,96936.41
2019-04-11T12:08:45.351Z,96934.27
2019-04-11T12:11:15.708Z,96935.69
2019-04-11T12:14:04.656Z,96937.70
2019-04-11T12:17:00.361Z,96939.31
2019-04-11T12:19:51.088Z,96938.63
2019-04-11T12:22:16.059Z,96938.41
2019-04-11T12:24:54.419Z,96936.75
2019-04-11T12:27:58.308Z,96942.17
2019-04-11T12:30:36.992Z,96938.16
2019-04-11T12:33:23.588Z,96935.16
2019-04-11T12:36:03.274Z,96934.29
2019-04-11T12:38:54.880Z,96937.08
2019-04-11T12:41:48.084Z,96938.67
2019-04-11T12:44:50.648Z,96932.73
2019-04-11T12:47:26.819Z,96942.27
2019-04-11T12:50:26.311Z,96948.67
2019-04-11T12:53:01.584Z,96947.01
2019-04-11T12:55:57.602Z,96949.51
2019-04-11T12:58:31.824Z,96935.94
2019-04-11T13:01:21.950Z,96936.48
2019-04-11T13:04:24.305Z,96929.39
2019-04-11T13:07:13.096Z,96929.69
2019-04-11T13:09:48.807Z,96932.06
2019-04-11T13:12:33.658Z,96936.63
2019-04-11T13:15:20.750Z,96927.09
2019-04-11T13:18:11.014Z,96931.30
2019-04-11T13:20:52.533Z,96926.33
2019-04-11T13:23:41.835Z,96924.30
2019-04-11T13:26:48.615Z,96925.89
2019-04-11T13:29:36.857Z,96934.89
2019-04-11T13:32:25.548Z,96927.22
2019-04-11T13:35:00.455Z,96927.54
2019-04-11T13:37:49.403Z,96922.63
2019-04-11T13:40:35.798Z,96926.89
2019-04-11T13:43:24.610Z,96933.49
2019-04-11T13:46:30.258Z,96939.22
2019-04-11T13:49:13.813Z,96939.22
2019-04-11T13:52:03.061Z,96940.59
2019-04-11T13:54:57.513Z,96937.86
2019-04-11T13:57:47.951Z,96928.36
2019-04-11T14:00:39.686Z,96931.70
2019-04-11T14:03:24.403Z,96929.89
2019-04-11T14:05:57.433Z,96931.91
2019-04-11T14:08:38.450Z,96932.76
2019-04-11T14:11:12.435Z,96923.09
2019-04-11T14:13:44.376Z,96927.13
2019-04-11T14:16:18.287Z,96922.99
2019-04-11T14:19:11.696Z,96921.27
2019-04-11T14:21:43.685Z,96918.51
2019-04-11T14:24:46.037Z,96918.13
2019-04-11T14:27:22.910Z,96915.97
2019-04-11T14:30:09.963Z,96921.40
2019-04-11T14:32:44.652Z,96928.78
2019-04-11T14:35:35.298Z,96933.58
2019-04-11T14:38:11.985Z,96933.64
2019-04-11T14:41:02.551Z,96940.17
2019-04-11T14:43:45.872Z,96931.12
2019-04-11T14:46:36.775Z,96935.52
2019-04-11T14:49:11.174Z,96932.92
2019-04-11T14:52:00.478Z,96933.88
2019-04-11T14:54:40.662Z,96932.08
2019-04-11T14:57:22.745Z,96936.31
2019-04-11T15:00:12.066Z,96932.48
2019-04-11T15:03:02.404Z,96938.15
2019-04-11T15:05:44.588Z,96934.32
2019-04-11T15:08:17.729Z,96940.30
2019-04-11T15:10:58.793Z,96945.16
2019-04-11T15:13:30.648Z,96948.64
2019-04-11T15:16:26.522Z,96952.52
2019-04-11T15:19:00.989Z,96955.11
2019-04-11T15:21:49.754Z,96958.65
2019-04-11T15:24:21.707Z,96955.61
2019-04-11T15:27:11.856Z,96954.35
2019-04-11T15:29:45.895Z,96952.20
2019-04-11T15:32:39.681Z,96955.65
2019-04-11T15:35:13.186Z,96960.25
2019-04-11T15:38:18.665Z,96962.41
2019-04-11T15:40:53.502Z,96968.02
2019-04-11T15:43:43.649Z,96966.81
2019-04-11T15:46:23.261Z,96964.31
2019-04-11T15:49:20.977Z,96971.21
2019-04-11T15:52:06.931Z,96972.06
2019-04-11T15:54:57.784Z,96963.45
2019-04-11T15:57:37.834Z,96969.49
2019-04-11T16:00:34.947Z,96966.04
2019-04-11T16:03:11.180Z,96975.11
2019-04-11T16:06:02.152Z,96972.92
2019-04-11T16:08:44.769Z,96979.39
2019-04-11T16:11:53.621Z,96975.54
2019-04-11T16:14:30.434Z,96983.29
2019-04-11T16:17:26.763Z,96986.71
2019-04-11T16:20:04.381Z,96984.95
2019-04-11T16:22:55.321Z,96990.95
2019-04-11T16:25:28.978Z,96989.69
2019-04-11T16:28:21.783Z,96990.51
2019-04-11T16:30:55.345Z,96984.91
2019-04-11T16:34:03.797Z,96992.69
2019-04-11T16:36:42.090Z,96990.08
2019-04-11T16:39:35.577Z,96987.95
2019-04-11T16:42:09.791Z,96990.55
2019-04-11T16:45:00.349Z,96995.68
2019-04-11T16:47:49.564Z,96997.37
2019-04-11T16:50:21.056Z,97002.50
2019-04-11T16:52:52.641Z,97003.81
2019-04-11T16:55:24.157Z,97003.34
2019-04-11T16:57:55.852Z,97002.48
2019-04-11T17:00:27.411Z,97002.42
2019-04-11T17:02:58.943Z,97005.38
2019-04-11T17:05:30.629Z,97010.83
2019-04-11T17:08:21.106Z,97007.83
2019-04-11T17:11:18.902Z,97014.20
2019-04-11T17:13:50.594Z,97012.87
2019-04-11T17:16:22.664Z,97016.72
2019-04-11T17:18:54.260Z,97023.94
2019-04-11T17:21:25.718Z,97020.42
2019-04-11T17:23:57.261Z,97020.91
2019-04-11T17:26:28.815Z,97022.97
2019-04-11T17:29:00.525Z,97021.64
2019-04-11T17:31:32.050Z,97024.94
2019-04-11T17:34:05.590Z,97024.83
2019-04-11T17:36:36.801Z,97039.64
2019-04-11T17:39:09.004Z,97039.55
2019-04-11T17:41:42.048Z,97038.89
2019-04-11T17:44:15.157Z,97044.45
2019-04-11T17:46:46.983Z,97045.20
2019-04-11T17:49:18.505Z,97049.72
2019-04-11T17:51:55.737Z,97054.75
2019-04-11T17:54:25.013Z,97056.31
2019-04-11T17:56:59.051Z,97061.73
2019-04-11T17:59:29.941Z,97066.20
2019-04-11T18:02:01.528Z,97073.10
2019-04-11T18:04:33.239Z,97078.02
2019-04-11T18:07:04.778Z,97074.34
2019-04-11T18:09:36.306Z,97081.98
2019-04-11T18:12:07.797Z,97087.91
2019-04-11T18:14:39.443Z,97088.62
2019-04-11T18:17:10.995Z,97091.94
2019-04-11T18:19:42.583Z,97102.77
2019-04-11T18:22:14.379Z,97098.47
2019-04-11T18:24:49.835Z,97095.47
2019-04-11T18:27:21.901Z,97099.57
2019-04-11T18:29:53.647Z,97102.27
2019-04-11T18:32:25.321Z,97110.96
2019-04-11T18:34:57.037Z,97120.69
2019-04-11T18:37:29.781Z,97119.92
2019-04-11T18:40:06.306Z,97122.66
2019-04-11T18:42:35.349Z,97122.85
2019-04-11T18:45:09.130Z,97132.59
2019-04-11T18:47:40.681Z,97132.48
2019-04-11T18:50:14.320Z,97133.13
2019-04-11T18:52:45.914Z,97142.47
2019-04-11T18:55:17.825Z,97143.34
2019-04-11T18:57:49.750Z,97140.61
2019-04-11T19:00:22.957Z,97147.38
2019-04-11T19:02:54.915Z,97142.05
2019-04-11T19:05:29.049Z,97145.31
2019-04-11T19:07:59.898Z,97153.95
2019-04-11T19:10:31.628Z,97155.23
2019-04-11T19:13:03.216Z,97165.34
2019-04-11T19:15:35.862Z,97160.86
2019-04-11T19:18:07.432Z,97159.36
2019-04-11T19:20:39.082Z,97167.47
2019-04-11T19:23:10.534Z,97165.47
2019-04-11T19:25:44.460Z,97165.00
2019-04-11T19:28:15.606Z,97171.78
2019-04-11T19:30:47.642Z,97166.56
2019-04-11T19:33:19.283Z,97172.83
2019-04-11T19:35:50.679Z,97169.27
2019-04-11T19:38:26.822Z,97170.47
2019-04-11T19:40:58.456Z,97170.94
2019-04-11T19:43:30.133Z,97170.35
2019-04-11T19:46:03.091Z,97166.52
2019-04-11T19:48:34.687Z,97165.05
2019-04-11T19:51:06.981Z,97165.44
2019-04-11T19:53:38.467Z,97173.41
2019-04-11T19:56:47.087Z,97174.02
2019-04-11T19:59:18.733Z,97165.29
2019-04-11T20:01:50.842Z,97175.72
2019-04-11T20:04:24.678Z,97175.66
2019-04-11T20:06:56.648Z,97169.30
2019-04-11T20:09:28.109Z,97175.60
2019-04-11T20:12:00.733Z,97176.52
2019-04-11T20:14:34.931Z,97173.77
2019-04-11T20:17:05.734Z,97175.20
2019-04-11T20:19:37.286Z,97178.20
2019-04-11T20:22:09.386Z,97171.38
2019-04-11T20:24:46.000Z,97172.80
2019-04-11T20:27:14.667Z,97174.83
2019-04-11T20:29:46.159Z,97174.98
2019-04-11T20:32:17.919Z,97173.61
2019-04-11T20:34:49.675Z,97175.77
2019-04-11T20:37:21.144Z,97172.80
2019-04-11T20:39:53.837Z,97171.42
2019-04-11T20:42:25.700Z,97178.38
2019-04-11T20:44:58.481Z,97179.59
2019-04-11T20:47:30.628Z,97169.89
2019-04-11T20:50:07.268Z,97178.70
2019-04-11T20:52:35.823Z,97177.73
2019-04-11T20:55:09.223Z,97170.27
2019-04-11T20:57:41.226Z,97173.53
2019-04-11T21:00:13.181Z,97172.76
2019-04-11T21:02:44.972Z,97178.75
2019-04-11T21:05:17.335Z,97174.91
2019-04-11T21:07:48.957Z,97182.48
2019-04-11T21:10:20.646Z,97184.30
2019-04-11T21:12:52.514Z,97184.30
2019-04-11T21:15:24.224Z,97183.78
2019-04-11T21:17:56.673Z,97188.69
2019-04-11T21:20:28.202Z,97184.48
2019-04-11T21:22:59.713Z,97188.15
2019-04-11T21:25:31.284Z,97185.88
2019-04-11T21:28:02.735Z,97188.83
2019-04-11T21:30:34.190Z,97190.41
2019-04-11T21:33:05.781Z,97184.65
2019-04-11T21:35:37.588Z,97194.54
2019-04-11T21:38:09.418Z,97190.98
2019-04-11T21:40:41.046Z,97194.38
2019-04-11T21:43:12.537Z,97194.54
2019-04-11T21:45:44.414Z,97195.67
2019-04-11T21:48:15.978Z,97195.97
2019-04-11T21:50:47.702Z,97205.28
2019-04-11T21:53:19.220Z,97208.75
2019-04-11T21:55:50.757Z,97207.30
2019-04-11T21:58:22.264Z,97217.11
2019-04-11T22:01:04.420Z,97211.49
2019-04-11T22:03:36.160Z,97211.89
2019-04-11T22:06:07.688Z,97210.80
2019-04-11T22:08:39.148Z,97226.56
2019-04-11T22:11:10.830Z,97215.14
2019-04-11T22:13:43.568Z,97216.89
2019-04-11T22:16:15.104Z,97212.28
2019-04-11T22:18:46.697Z,97217.31
2019-04-11T22:21:18.170Z,97215.92
2019-04-11T22:23:49.584Z,97220.23
2019-04-11T22:26:20.956Z,97213.25
2019-04-11T22:28:54.886Z,97222.36
2019-04-11T22:31:26.253Z,97217.05
2019-04-11T22:34:03.278Z,97208.81
2019-04-11T22:36:34.618Z,97215.47
2019-04-11T22:39:10.601Z,97220.05
2019-04-11T22:41:42.529Z,97218.30
2019-04-11T22:44:14.012Z,97217.03
2019-04-11T22:46:45.429Z,97222.38
2019-04-11T22:49:17.232Z,97234.89
2019-04-11T22:51:48.846Z,97236.92
2019-04-11T22:54:20.287Z,97235.13
2019-04-11T22:56:51.751Z,97233.64
2019-04-11T22:59:23.912Z,97230.62
2019-04-11T23:01:57.001Z,97235.84
2019-04-11T23:04:28.652Z,97224.31
2019-04-11T23:19:32.935Z,97233.83
2019-04-11T23:22:04.442Z,97238.45
2019-04-11T23:24:35.689Z,97230.28
2019-04-11T23:27:07.292Z,97241.58
2019-04-11T23:29:39.195Z,97229.53
2019-04-11T23:32:12.016Z,97234.06
2019-04-11T23:34:43.509Z,97236.19
2019-04-11T23:37:15.493Z,97237.14
2019-04-11T23:39:47.043Z,97237.89
2019-04-11T23:42:19.733Z,97245.23
2019-04-11T23:44:51.772Z,97243.95
2019-04-11T23:47:23.895Z,97241.36
2019-04-11T23:49:56.161Z,97241.63
2019-04-11T23:52:27.764Z,97239.91
2019-04-11T23:55:00.507Z,97234.28
2019-04-11T23:57:32.768Z,97238.72
